createdAt,value
2018-12-27T00:29:21.226Z,1025.31
2018-12-27T00:29:21.800Z,1025.26
2018-12-27T00:29:22.399Z,1025.32
2018-12-27T00:29:22.998Z,1025.29
2018-12-27T00:29:23.597Z,1025.30
2018-12-27T00:29:24.197Z,1025.27
2018-12-27T00:29:24.801Z,1025.30
2018-12-27T00:29:25.409Z,1025.29
2018-12-27T00:30:18.879Z,1025.32
2018-12-27T00:30:19.452Z,1025.31
2018-12-27T00:30:20.052Z,1025.27
2018-12-27T00:30:20.654Z,1025.24
2018-12-27T00:30:21.255Z,1025.29
2018-12-27T00:30:21.852Z,1025.31
2018-12-27T00:30:22.452Z,1025.28
2018-12-27T00:30:23.050Z,1025.26
2018-12-27T00:31:16.508Z,1025.27
2018-12-27T00:31:17.104Z,1025.26
2018-12-27T00:31:17.704Z,1025.27
2018-12-27T00:31:18.305Z,1025.25
2018-12-27T00:31:18.904Z,1025.25
2018-12-27T00:31:19.504Z,1025.25
2018-12-27T00:31:20.104Z,1025.25
2018-12-27T00:31:20.707Z,1025.26
2018-12-27T00:32:14.161Z,1025.23
2018-12-27T00:32:14.757Z,1025.26
2018-12-27T00:32:15.357Z,1025.21
2018-12-27T00:32:15.957Z,1025.21
2018-12-27T00:32:16.555Z,1025.24
2018-12-27T00:32:17.155Z,1025.25
2018-12-27T00:32:17.758Z,1025.20
2018-12-27T00:32:18.356Z,1025.22
2018-12-27T00:33:11.812Z,1025.20
2018-12-27T00:33:12.409Z,1025.23
2018-12-27T00:33:13.011Z,1025.23
2018-12-27T00:33:13.609Z,1025.20
2018-12-27T00:33:14.209Z,1025.20
2018-12-27T00:33:14.809Z,1025.24
2018-12-27T00:33:15.409Z,1025.21
2018-12-27T00:33:16.008Z,1025.20
2018-12-27T00:34:09.464Z,1025.17
2018-12-27T00:34:10.062Z,1025.19
2018-12-27T00:34:10.661Z,1025.18
2018-12-27T00:34:11.261Z,1025.16
2018-12-27T00:34:11.860Z,1025.15
2018-12-27T00:34:12.462Z,1025.16
2018-12-27T00:34:13.060Z,1025.19
2018-12-27T00:34:13.661Z,1025.17
2018-12-27T00:35:07.145Z,1025.17
2018-12-27T00:35:07.713Z,1025.15
2018-12-27T00:35:08.313Z,1025.11
2018-12-27T00:35:08.913Z,1025.18
2018-12-27T00:35:09.512Z,1025.15
2018-12-27T00:35:10.113Z,1025.16
2018-12-27T00:35:10.712Z,1025.14
2018-12-27T00:35:11.312Z,1025.15
2018-12-27T00:36:04.768Z,1025.16
2018-12-27T00:36:05.364Z,1025.13
2018-12-27T00:36:05.966Z,1025.13
2018-12-27T00:36:06.565Z,1025.18
2018-12-27T00:36:07.164Z,1025.18
2018-12-27T00:36:07.764Z,1025.16
2018-12-27T00:36:08.366Z,1025.18
2018-12-27T00:36:08.965Z,1025.13
2018-12-27T00:37:02.421Z,1025.19
2018-12-27T00:37:03.019Z,1025.15
2018-12-27T00:37:03.617Z,1025.14
2018-12-27T00:37:04.217Z,1025.15
2018-12-27T00:37:04.820Z,1025.15
2018-12-27T00:37:05.417Z,1025.12
2018-12-27T00:37:06.020Z,1025.18
2018-12-27T00:37:06.617Z,1025.14
2018-12-27T00:38:00.072Z,1025.19
2018-12-27T00:38:00.668Z,1025.18
2018-12-27T00:38:01.269Z,1025.18
2018-12-27T00:38:01.869Z,1025.14
2018-12-27T00:38:02.469Z,1025.16
2018-12-27T00:38:03.068Z,1025.16
2018-12-27T00:38:03.668Z,1025.17
2018-12-27T00:38:04.268Z,1025.14
2018-12-27T00:38:58.746Z,1025.22
2018-12-27T00:38:59.346Z,1025.21
2018-12-27T00:38:59.948Z,1025.21
2018-12-27T00:39:00.544Z,1025.19
2018-12-27T00:39:01.143Z,1025.18
2018-12-27T00:39:01.745Z,1025.15
2018-12-27T00:39:02.345Z,1025.15
2018-12-27T00:39:02.943Z,1025.14
2018-12-27T00:39:57.495Z,1025.18
2018-12-27T00:39:58.021Z,1025.16
2018-12-27T00:39:58.619Z,1025.13
2018-12-27T00:39:59.220Z,1025.15
2018-12-27T00:39:59.820Z,1025.15
2018-12-27T00:40:00.418Z,1025.15
2018-12-27T00:40:01.018Z,1025.15
2018-12-27T00:40:01.619Z,1025.14
2018-12-27T00:40:56.104Z,1025.22
2018-12-27T00:40:56.696Z,1025.20
2018-12-27T00:40:57.297Z,1025.18
2018-12-27T00:40:57.897Z,1025.20
2018-12-27T00:40:58.497Z,1025.19
2018-12-27T00:40:59.096Z,1025.20
2018-12-27T00:40:59.695Z,1025.16
2018-12-27T00:41:00.295Z,1025.19
2018-12-27T00:41:53.753Z,1025.22
2018-12-27T00:41:54.350Z,1025.20
2018-12-27T00:41:54.950Z,1025.18
2018-12-27T00:41:55.548Z,1025.18
2018-12-27T00:41:56.149Z,1025.21
2018-12-27T00:41:56.749Z,1025.15
2018-12-27T00:41:57.348Z,1025.15
2018-12-27T00:41:57.948Z,1025.16
2018-12-27T00:42:51.405Z,1025.19
2018-12-27T00:42:52.001Z,1025.18
2018-12-27T00:42:52.600Z,1025.20
2018-12-27T00:42:53.199Z,1025.18
2018-12-27T00:42:53.805Z,1025.19
2018-12-27T00:42:54.400Z,1025.20
2018-12-27T00:42:54.998Z,1025.18
2018-12-27T00:42:55.600Z,1025.19
2018-12-27T00:43:50.079Z,1025.21
2018-12-27T00:43:50.676Z,1025.17
2018-12-27T00:43:51.277Z,1025.19
2018-12-27T00:43:51.877Z,1025.15
2018-12-27T00:43:52.479Z,1025.16
2018-12-27T00:43:53.076Z,1025.14
2018-12-27T00:43:53.676Z,1025.17
2018-12-27T00:43:54.275Z,1025.18
2018-12-27T00:44:48.758Z,1025.21
2018-12-27T00:44:49.356Z,1025.19
2018-12-27T00:44:49.951Z,1025.20
2018-12-27T00:44:50.551Z,1025.18
2018-12-27T00:44:51.151Z,1025.18
2018-12-27T00:44:51.751Z,1025.17
2018-12-27T00:44:52.350Z,1025.15
2018-12-27T00:44:52.950Z,1025.18
2018-12-27T00:45:46.431Z,1025.19
2018-12-27T00:45:47.003Z,1025.17
2018-12-27T00:45:47.607Z,1025.16
2018-12-27T00:45:48.204Z,1025.13
2018-12-27T00:45:48.803Z,1025.15
2018-12-27T00:45:49.403Z,1025.17
2018-12-27T00:45:50.004Z,1025.18
2018-12-27T00:45:50.603Z,1025.15
2018-12-27T00:46:44.057Z,1025.15
2018-12-27T00:46:44.655Z,1025.16
2018-12-27T00:46:45.257Z,1025.13
2018-12-27T00:46:45.856Z,1025.20
2018-12-27T00:46:46.456Z,1025.14
2018-12-27T00:46:47.056Z,1025.11
2018-12-27T00:46:47.655Z,1025.15
2018-12-27T00:46:48.255Z,1025.16
2018-12-27T00:47:41.711Z,1025.18
2018-12-27T00:47:42.308Z,1025.15
2018-12-27T00:47:42.908Z,1025.17
2018-12-27T00:47:43.508Z,1025.15
2018-12-27T00:47:44.108Z,1025.12
2018-12-27T00:47:44.707Z,1025.14
2018-12-27T00:47:45.307Z,1025.11
2018-12-27T00:47:45.907Z,1025.09
2018-12-27T00:48:40.385Z,1025.11
2018-12-27T00:48:40.984Z,1025.15
2018-12-27T00:48:41.584Z,1025.13
2018-12-27T00:48:42.182Z,1025.18
2018-12-27T00:48:42.782Z,1025.16
2018-12-27T00:48:43.382Z,1025.14
2018-12-27T00:48:43.983Z,1025.13
2018-12-27T00:48:44.581Z,1025.11
2018-12-27T00:49:38.040Z,1025.16
2018-12-27T00:49:38.640Z,1025.21
2018-12-27T00:49:39.237Z,1025.19
2018-12-27T00:49:39.835Z,1025.12
2018-12-27T00:49:40.435Z,1025.11
2018-12-27T00:49:41.037Z,1025.15
2018-12-27T00:49:41.635Z,1025.14
2018-12-27T00:49:42.236Z,1025.16
2018-12-27T00:50:35.714Z,1025.17
2018-12-27T00:50:36.288Z,1025.13
2018-12-27T00:50:36.886Z,1025.13
2018-12-27T00:50:37.486Z,1025.07
2018-12-27T00:50:38.087Z,1025.13
2018-12-27T00:50:38.687Z,1025.13
2018-12-27T00:50:39.286Z,1025.15
2018-12-27T00:50:39.886Z,1025.13
2018-12-27T00:51:34.366Z,1025.18
2018-12-27T00:51:34.963Z,1025.15
2018-12-27T00:51:35.562Z,1025.15
2018-12-27T00:51:36.162Z,1025.16
2018-12-27T00:51:36.761Z,1025.15
2018-12-27T00:51:37.361Z,1025.17
2018-12-27T00:51:37.962Z,1025.16
2018-12-27T00:51:38.561Z,1025.18
2018-12-27T00:52:32.018Z,1025.19
2018-12-27T00:52:32.620Z,1025.19
2018-12-27T00:52:33.214Z,1025.16
2018-12-27T00:52:33.813Z,1025.14
2018-12-27T00:52:34.412Z,1025.17
2018-12-27T00:52:35.014Z,1025.17
2018-12-27T00:52:35.612Z,1025.18
2018-12-27T00:52:36.214Z,1025.15
2018-12-27T00:53:29.670Z,1025.18
2018-12-27T00:53:30.267Z,1025.16
2018-12-27T00:53:30.866Z,1025.16
2018-12-27T00:53:31.466Z,1025.12
2018-12-27T00:53:32.066Z,1025.15
2018-12-27T00:53:32.667Z,1025.16
2018-12-27T00:53:33.268Z,1025.15
2018-12-27T00:53:33.870Z,1025.13
2018-12-27T00:54:27.322Z,1025.14
2018-12-27T00:54:27.918Z,1025.13
2018-12-27T00:54:28.519Z,1025.13
2018-12-27T00:54:29.118Z,1025.16
2018-12-27T00:54:29.718Z,1025.12
2018-12-27T00:54:30.317Z,1025.16
2018-12-27T00:54:30.918Z,1025.14
2018-12-27T00:54:31.519Z,1025.15
2018-12-27T00:55:26.036Z,1025.14
2018-12-27T00:55:26.593Z,1025.16
2018-12-27T00:55:27.193Z,1025.14
2018-12-27T00:55:27.793Z,1025.17
2018-12-27T00:55:28.393Z,1025.19
2018-12-27T00:55:28.993Z,1025.14
2018-12-27T00:55:29.593Z,1025.12
2018-12-27T00:55:30.194Z,1025.11
2018-12-27T00:56:23.649Z,1025.15
2018-12-27T00:56:24.245Z,1025.14
2018-12-27T00:56:24.846Z,1025.13
2018-12-27T00:56:25.447Z,1025.13
2018-12-27T00:56:26.045Z,1025.15
2018-12-27T00:56:26.645Z,1025.15
2018-12-27T00:56:27.244Z,1025.16
2018-12-27T00:56:27.844Z,1025.15
2018-12-27T00:57:21.301Z,1025.17
2018-12-27T00:57:21.897Z,1025.15
2018-12-27T00:57:22.496Z,1025.15
2018-12-27T00:57:23.098Z,1025.19
2018-12-27T00:57:23.697Z,1025.14
2018-12-27T00:57:24.300Z,1025.17
2018-12-27T00:57:24.897Z,1025.15
2018-12-27T00:57:25.498Z,1025.18
2018-12-27T00:58:18.951Z,1025.16
2018-12-27T00:58:19.550Z,1025.13
2018-12-27T00:58:20.149Z,1025.14
2018-12-27T00:58:20.749Z,1025.13
2018-12-27T00:58:21.348Z,1025.15
2018-12-27T00:58:21.948Z,1025.13
2018-12-27T00:58:22.549Z,1025.15
2018-12-27T00:58:23.148Z,1025.15
2018-12-27T00:59:16.602Z,1025.15
2018-12-27T00:59:17.200Z,1025.13
2018-12-27T00:59:17.800Z,1025.14
2018-12-27T00:59:18.402Z,1025.12
2018-12-27T00:59:19.000Z,1025.12
2018-12-27T00:59:19.601Z,1025.10
2018-12-27T00:59:20.200Z,1025.09
2018-12-27T00:59:20.798Z,1025.09
2018-12-27T01:00:14.255Z,1025.14
2018-12-27T01:00:14.853Z,1025.13
2018-12-27T01:00:15.452Z,1025.11
2018-12-27T01:00:16.053Z,1025.15
2018-12-27T01:00:16.653Z,1025.13
2018-12-27T01:00:17.255Z,1025.11
2018-12-27T01:00:17.852Z,1025.12
2018-12-27T01:00:18.453Z,1025.10
2018-12-27T01:01:12.955Z,1025.11
2018-12-27T01:01:13.527Z,1025.11
2018-12-27T01:01:14.127Z,1025.11
2018-12-27T01:01:14.728Z,1025.10
2018-12-27T01:01:15.327Z,1025.10
2018-12-27T01:01:15.927Z,1025.09
2018-12-27T01:01:16.527Z,1025.07
2018-12-27T01:01:17.127Z,1025.10
2018-12-27T01:02:10.583Z,1025.09
2018-12-27T01:02:11.182Z,1025.09
2018-12-27T01:02:11.780Z,1025.09
2018-12-27T01:02:12.380Z,1025.09
2018-12-27T01:02:12.979Z,1025.09
2018-12-27T01:02:13.582Z,1025.11
2018-12-27T01:02:14.179Z,1025.07
2018-12-27T01:02:14.779Z,1025.11
2018-12-27T01:03:11.259Z,1025.08
2018-12-27T01:03:11.269Z,1025.10
2018-12-27T01:03:11.309Z,1025.10
2018-12-27T01:03:11.312Z,1025.08
2018-12-27T01:03:11.317Z,1025.10
2018-12-27T01:03:11.602Z,1025.08
2018-12-27T01:03:11.830Z,1025.08
2018-12-27T01:03:12.430Z,1025.09
2018-12-27T01:04:05.886Z,1025.06
2018-12-27T01:04:06.482Z,1025.05
2018-12-27T01:04:07.083Z,1025.10
2018-12-27T01:04:07.682Z,1025.07
2018-12-27T01:04:08.283Z,1025.06
2018-12-27T01:04:08.881Z,1025.09
2018-12-27T01:04:09.481Z,1025.06
2018-12-27T01:04:10.082Z,1025.09
2018-12-27T01:05:04.560Z,1025.07
2018-12-27T01:05:05.161Z,1025.07
2018-12-27T01:05:05.758Z,1025.08
2018-12-27T01:05:06.358Z,1025.06
2018-12-27T01:05:06.958Z,1025.10
2018-12-27T01:05:07.561Z,1025.09
2018-12-27T01:05:08.157Z,1025.09
2018-12-27T01:05:08.757Z,1025.09
2018-12-27T01:06:02.242Z,1025.07
2018-12-27T01:06:02.811Z,1025.09
2018-12-27T01:06:03.411Z,1025.08
2018-12-27T01:06:04.014Z,1025.07
2018-12-27T01:06:04.610Z,1025.02
2018-12-27T01:06:05.212Z,1025.02
2018-12-27T01:06:05.808Z,1025.05
2018-12-27T01:06:06.410Z,1025.05
2018-12-27T01:07:00.888Z,1025.02
2018-12-27T01:07:01.489Z,1025.04
2018-12-27T01:07:02.085Z,1025.00
2018-12-27T01:07:02.736Z,1025.02
2018-12-27T01:07:03.287Z,1025.02
2018-12-27T01:07:03.886Z,1025.04
2018-12-27T01:07:04.485Z,1025.02
2018-12-27T01:07:05.084Z,1025.01
2018-12-27T01:07:59.562Z,1025.02
2018-12-27T01:08:00.161Z,1025.01
2018-12-27T01:08:00.769Z,1025.05
2018-12-27T01:08:01.360Z,1025.02
2018-12-27T01:08:01.961Z,1025.03
2018-12-27T01:08:02.559Z,1025.05
2018-12-27T01:08:03.159Z,1025.01
2018-12-27T01:08:03.759Z,1025.03
2018-12-27T01:08:57.217Z,1025.05
2018-12-27T01:08:57.814Z,1025.04
2018-12-27T01:08:58.413Z,1025.01
2018-12-27T01:08:59.013Z,1024.99
2018-12-27T01:08:59.613Z,1024.97
2018-12-27T01:09:00.216Z,1025.04
2018-12-27T01:09:00.813Z,1025.06
2018-12-27T01:09:01.413Z,1025.01
2018-12-27T01:09:54.911Z,1025.07
2018-12-27T01:09:55.489Z,1025.01
2018-12-27T01:09:56.064Z,1025.02
2018-12-27T01:09:56.666Z,1025.04
2018-12-27T01:09:57.264Z,1025.03
2018-12-27T01:09:57.864Z,1025.01
2018-12-27T01:09:58.464Z,1025.05
2018-12-27T01:09:59.064Z,1025.02
2018-12-27T01:10:53.548Z,1025.07
2018-12-27T01:10:54.141Z,1025.03
2018-12-27T01:10:54.740Z,1025.04
2018-12-27T01:10:55.340Z,1025.04
2018-12-27T01:10:55.940Z,1025.04
2018-12-27T01:10:56.541Z,1025.05
2018-12-27T01:10:57.140Z,1025.04
2018-12-27T01:10:57.738Z,1025.03
2018-12-27T01:11:52.248Z,1025.06
2018-12-27T01:11:52.817Z,1025.06
2018-12-27T01:11:53.416Z,1025.05
2018-12-27T01:11:54.017Z,1025.08
2018-12-27T01:11:54.615Z,1025.07
2018-12-27T01:11:55.215Z,1025.08
2018-12-27T01:11:55.816Z,1025.07
2018-12-27T01:11:56.415Z,1025.04
2018-12-27T01:12:50.920Z,1025.09
2018-12-27T01:12:51.492Z,1025.06
2018-12-27T01:12:52.092Z,1025.08
2018-12-27T01:12:52.690Z,1025.07
2018-12-27T01:12:53.291Z,1025.07
2018-12-27T01:12:53.890Z,1025.07
2018-12-27T01:12:54.491Z,1025.02
2018-12-27T01:12:55.090Z,1025.08
2018-12-27T01:13:49.570Z,1025.08
2018-12-27T01:13:50.168Z,1025.08
2018-12-27T01:13:50.767Z,1025.08
2018-12-27T01:13:51.367Z,1025.07
2018-12-27T01:13:51.967Z,1025.10
2018-12-27T01:13:52.573Z,1025.10
2018-12-27T01:13:53.167Z,1025.07
2018-12-27T01:13:53.766Z,1025.11
2018-12-27T01:14:47.223Z,1025.08
2018-12-27T01:14:47.821Z,1025.11
2018-12-27T01:14:48.420Z,1025.07
2018-12-27T01:14:49.021Z,1025.05
2018-12-27T01:14:49.623Z,1025.08
2018-12-27T01:14:50.221Z,1025.09
2018-12-27T01:14:50.823Z,1025.09
2018-12-27T01:14:51.419Z,1025.08
2018-12-27T01:15:44.875Z,1025.06
2018-12-27T01:15:45.473Z,1025.02
2018-12-27T01:15:46.072Z,1025.04
2018-12-27T01:15:46.679Z,1025.03
2018-12-27T01:15:47.271Z,1025.01
2018-12-27T01:15:47.872Z,1025.05
2018-12-27T01:15:48.470Z,1025.04
2018-12-27T01:15:49.070Z,1025.01
2018-12-27T01:16:42.557Z,1025.07
2018-12-27T01:16:43.126Z,1025.09
2018-12-27T01:16:43.723Z,1025.05
2018-12-27T01:16:44.324Z,1025.07
2018-12-27T01:16:44.923Z,1025.09
2018-12-27T01:16:45.522Z,1025.09
2018-12-27T01:16:46.122Z,1025.07
2018-12-27T01:16:46.724Z,1025.10
2018-12-27T01:17:40.176Z,1025.09
2018-12-27T01:17:40.775Z,1025.12
2018-12-27T01:17:41.375Z,1025.08
2018-12-27T01:17:41.976Z,1025.07
2018-12-27T01:17:42.574Z,1025.10
2018-12-27T01:17:43.174Z,1025.06
2018-12-27T01:17:43.774Z,1025.07
2018-12-27T01:17:44.376Z,1025.10
2018-12-27T01:18:38.854Z,1025.10
2018-12-27T01:18:39.450Z,1025.07
2018-12-27T01:18:40.049Z,1025.08
2018-12-27T01:18:40.650Z,1025.08
2018-12-27T01:18:41.250Z,1025.11
2018-12-27T01:18:41.850Z,1025.09
2018-12-27T01:18:42.449Z,1025.06
2018-12-27T01:18:43.049Z,1025.05
2018-12-27T01:19:36.506Z,1025.11
2018-12-27T01:19:37.102Z,1025.08
2018-12-27T01:19:37.701Z,1025.06
2018-12-27T01:19:38.302Z,1025.02
2018-12-27T01:19:38.902Z,1025.06
2018-12-27T01:19:39.503Z,1025.06
2018-12-27T01:19:40.101Z,1025.06
2018-12-27T01:19:40.705Z,1025.07
2018-12-27T01:20:34.157Z,1025.03
2018-12-27T01:20:34.754Z,1025.05
2018-12-27T01:20:35.353Z,1025.05
2018-12-27T01:20:35.954Z,1025.02
2018-12-27T01:20:36.553Z,1025.07
2018-12-27T01:20:37.154Z,1025.03
2018-12-27T01:20:37.754Z,1025.06
2018-12-27T01:20:38.354Z,1025.03
2018-12-27T01:21:31.839Z,1025.10
2018-12-27T01:21:32.405Z,1025.07
2018-12-27T01:21:33.006Z,1025.02
2018-12-27T01:21:33.606Z,1025.08
2018-12-27T01:21:34.205Z,1025.07
2018-12-27T01:21:34.809Z,1025.01
2018-12-27T01:21:35.404Z,1025.00
2018-12-27T01:21:36.004Z,1025.07
2018-12-27T01:22:30.483Z,1025.06
2018-12-27T01:22:31.080Z,1025.06
2018-12-27T01:22:31.682Z,1025.08
2018-12-27T01:22:32.279Z,1025.03
2018-12-27T01:22:32.880Z,1025.08
2018-12-27T01:22:33.480Z,1025.09
2018-12-27T01:22:34.079Z,1025.05
2018-12-27T01:22:34.679Z,1025.09
2018-12-27T01:23:29.159Z,1025.05
2018-12-27T01:23:29.756Z,1025.03
2018-12-27T01:23:30.356Z,1025.05
2018-12-27T01:23:30.957Z,1025.05
2018-12-27T01:23:31.555Z,1025.06
2018-12-27T01:23:32.156Z,1025.06
2018-12-27T01:23:32.755Z,1025.08
2018-12-27T01:23:33.355Z,1025.07
2018-12-27T01:24:26.811Z,1025.04
2018-12-27T01:24:27.410Z,1025.06
2018-12-27T01:24:28.009Z,1025.06
2018-12-27T01:24:28.609Z,1025.04
2018-12-27T01:24:29.210Z,1025.04
2018-12-27T01:24:29.810Z,1025.02
2018-12-27T01:24:30.408Z,1025.02
2018-12-27T01:24:31.008Z,1025.02
2018-12-27T01:25:24.463Z,1025.07
2018-12-27T01:25:25.062Z,1025.09
2018-12-27T01:25:25.660Z,1025.10
2018-12-27T01:25:26.261Z,1025.06
2018-12-27T01:25:26.862Z,1025.05
2018-12-27T01:25:27.463Z,1025.06
2018-12-27T01:25:28.059Z,1025.08
2018-12-27T01:25:28.658Z,1025.04
2018-12-27T01:26:22.115Z,1025.07
2018-12-27T01:26:22.712Z,1025.07
2018-12-27T01:26:23.312Z,1025.09
2018-12-27T01:26:23.912Z,1025.06
2018-12-27T01:26:24.517Z,1025.08
2018-12-27T01:26:25.112Z,1025.06
2018-12-27T01:26:25.712Z,1025.03
2018-12-27T01:26:26.310Z,1025.04
2018-12-27T01:27:19.791Z,1025.02
2018-12-27T01:27:20.364Z,1025.08
2018-12-27T01:27:20.965Z,1025.07
2018-12-27T01:27:21.569Z,1025.06
2018-12-27T01:27:22.163Z,1025.09
2018-12-27T01:27:22.763Z,1025.06
2018-12-27T01:27:23.363Z,1025.09
2018-12-27T01:27:23.961Z,1025.06
2018-12-27T01:28:17.420Z,1025.08
2018-12-27T01:28:18.016Z,1025.06
2018-12-27T01:28:18.615Z,1025.05
2018-12-27T01:28:19.214Z,1025.10
2018-12-27T01:28:19.815Z,1025.09
2018-12-27T01:28:20.415Z,1025.07
2018-12-27T01:28:21.014Z,1025.09
2018-12-27T01:28:21.613Z,1025.08
2018-12-27T01:29:15.073Z,1025.09
2018-12-27T01:29:15.670Z,1025.09
2018-12-27T01:29:16.266Z,1025.08
2018-12-27T01:29:16.867Z,1025.09
2018-12-27T01:29:17.467Z,1025.07
2018-12-27T01:29:18.068Z,1025.06
2018-12-27T01:29:18.667Z,1025.05
2018-12-27T01:29:19.266Z,1025.06
2018-12-27T01:30:13.748Z,1025.06
2018-12-27T01:30:14.343Z,1025.06
2018-12-27T01:30:14.944Z,1025.09
2018-12-27T01:30:15.542Z,1025.09
2018-12-27T01:30:16.142Z,1025.07
2018-12-27T01:30:16.744Z,1025.06
2018-12-27T01:30:17.342Z,1025.03
2018-12-27T01:30:17.941Z,1025.04
2018-12-27T01:31:12.423Z,1025.07
2018-12-27T01:31:13.019Z,1025.08
2018-12-27T01:31:13.617Z,1025.08
2018-12-27T01:31:14.219Z,1025.06
2018-12-27T01:31:14.819Z,1025.09
2018-12-27T01:31:15.422Z,1025.11
2018-12-27T01:31:16.018Z,1025.05
2018-12-27T01:31:16.617Z,1025.07
2018-12-27T01:32:10.097Z,1025.07
2018-12-27T01:32:10.670Z,1025.09
2018-12-27T01:32:11.270Z,1025.08
2018-12-27T01:32:11.871Z,1025.10
2018-12-27T01:32:12.478Z,1025.07
2018-12-27T01:32:13.071Z,1025.10
2018-12-27T01:32:13.669Z,1025.05
2018-12-27T01:32:14.269Z,1025.11
2018-12-27T01:33:07.725Z,1025.10
2018-12-27T01:33:08.322Z,1025.07
2018-12-27T01:33:08.921Z,1025.07
2018-12-27T01:33:09.525Z,1025.10
2018-12-27T01:33:10.121Z,1025.08
2018-12-27T01:33:10.722Z,1025.11
2018-12-27T01:33:18.532Z,1025.12
2018-12-27T01:33:18.546Z,1025.11
2018-12-27T01:34:05.375Z,1025.10
2018-12-27T01:34:05.974Z,1025.11
2018-12-27T01:34:06.574Z,1025.10
2018-12-27T01:34:07.173Z,1025.12
2018-12-27T01:34:07.773Z,1025.13
2018-12-27T01:34:08.374Z,1025.06
2018-12-27T01:34:08.975Z,1025.07
2018-12-27T01:34:09.573Z,1025.10
2018-12-27T01:35:03.080Z,1025.10
2018-12-27T01:35:03.623Z,1025.11
2018-12-27T01:35:04.225Z,1025.10
2018-12-27T01:35:04.822Z,1025.12
2018-12-27T01:35:05.430Z,1025.08
2018-12-27T01:35:06.023Z,1025.05
2018-12-27T01:35:06.622Z,1025.10
2018-12-27T01:35:07.224Z,1025.11
2018-12-27T01:36:00.680Z,1025.11
2018-12-27T01:36:01.277Z,1025.10
2018-12-27T01:36:01.877Z,1025.09
2018-12-27T01:36:02.477Z,1025.10
2018-12-27T01:36:03.078Z,1025.10
2018-12-27T01:36:03.677Z,1025.10
2018-12-27T01:36:04.277Z,1025.14
2018-12-27T01:36:04.876Z,1025.11
2018-12-27T01:36:58.330Z,1025.10
2018-12-27T01:36:58.930Z,1025.10
2018-12-27T01:36:59.531Z,1025.10
2018-12-27T01:37:00.130Z,1025.11
2018-12-27T01:37:00.728Z,1025.10
2018-12-27T01:37:01.329Z,1025.14
2018-12-27T01:37:01.929Z,1025.10
2018-12-27T01:37:02.530Z,1025.11
2018-12-27T01:37:56.014Z,1025.07
2018-12-27T01:37:56.580Z,1025.08
2018-12-27T01:37:57.183Z,1025.11
2018-12-27T01:37:57.780Z,1025.09
2018-12-27T01:37:58.379Z,1025.07
2018-12-27T01:37:58.981Z,1025.10
2018-12-27T01:37:59.580Z,1025.12
2018-12-27T01:38:00.178Z,1025.08
2018-12-27T01:38:53.644Z,1025.10
2018-12-27T01:38:54.233Z,1025.08
2018-12-27T01:38:54.833Z,1025.07
2018-12-27T01:38:55.432Z,1025.05
2018-12-27T01:38:56.033Z,1025.09
2018-12-27T01:38:56.633Z,1025.08
2018-12-27T01:38:57.232Z,1025.08
2018-12-27T01:38:57.833Z,1025.07
2018-12-27T01:39:52.309Z,1025.10
2018-12-27T01:39:52.906Z,1025.10
2018-12-27T01:39:53.508Z,1025.11
2018-12-27T01:39:54.107Z,1025.10
2018-12-27T01:39:54.708Z,1025.08
2018-12-27T01:39:55.306Z,1025.11
2018-12-27T01:39:55.907Z,1025.08
2018-12-27T01:39:56.507Z,1025.09
2018-12-27T01:40:50.986Z,1025.10
2018-12-27T01:40:51.583Z,1025.08
2018-12-27T01:40:52.183Z,1025.07
2018-12-27T01:40:52.782Z,1025.07
2018-12-27T01:40:53.383Z,1025.07
2018-12-27T01:40:53.981Z,1025.09
2018-12-27T01:40:54.582Z,1025.08
2018-12-27T01:40:55.181Z,1025.06
2018-12-27T01:41:49.661Z,1025.05
2018-12-27T01:41:50.258Z,1025.08
2018-12-27T01:41:50.858Z,1025.09
2018-12-27T01:41:51.458Z,1025.06
2018-12-27T01:41:52.056Z,1025.04
2018-12-27T01:41:52.657Z,1025.06
2018-12-27T01:41:53.258Z,1025.08
2018-12-27T01:41:53.857Z,1025.08
2018-12-27T01:42:47.337Z,1025.07
2018-12-27T01:42:47.911Z,1025.09
2018-12-27T01:42:48.515Z,1025.08
2018-12-27T01:42:49.108Z,1025.06
2018-12-27T01:42:49.708Z,1025.08
2018-12-27T01:42:50.308Z,1025.10
2018-12-27T01:42:50.909Z,1025.05
2018-12-27T01:42:51.507Z,1025.07
2018-12-27T01:43:45.989Z,1025.08
2018-12-27T01:43:46.587Z,1025.04
2018-12-27T01:43:47.185Z,1025.06
2018-12-27T01:43:47.786Z,1025.02
2018-12-27T01:43:48.388Z,1025.06
2018-12-27T01:43:48.985Z,1025.04
2018-12-27T01:43:49.584Z,1025.09
2018-12-27T01:43:50.192Z,1025.06
2018-12-27T01:44:44.665Z,1025.11
2018-12-27T01:44:45.262Z,1025.07
2018-12-27T01:44:45.861Z,1025.07
2018-12-27T01:44:46.461Z,1025.07
2018-12-27T01:44:47.060Z,1025.09
2018-12-27T01:44:47.661Z,1025.04
2018-12-27T01:44:48.260Z,1025.05
2018-12-27T01:44:48.859Z,1025.09
2018-12-27T01:45:42.317Z,1025.06
2018-12-27T01:45:42.915Z,1025.07
2018-12-27T01:45:43.514Z,1025.05
2018-12-27T01:45:44.114Z,1025.08
2018-12-27T01:45:44.715Z,1025.06
2018-12-27T01:45:45.314Z,1025.07
2018-12-27T01:45:45.913Z,1025.05
2018-12-27T01:45:46.514Z,1025.05
2018-12-27T01:46:40.990Z,1025.10
2018-12-27T01:46:41.589Z,1025.06
2018-12-27T01:46:42.189Z,1025.09
2018-12-27T01:46:42.789Z,1025.07
2018-12-27T01:46:43.390Z,1025.04
2018-12-27T01:46:43.989Z,1025.08
2018-12-27T01:46:44.589Z,1025.05
2018-12-27T01:46:45.188Z,1025.09
2018-12-27T01:47:38.669Z,1025.06
2018-12-27T01:47:39.244Z,1025.07
2018-12-27T01:47:39.842Z,1025.07
2018-12-27T01:47:40.440Z,1025.03
2018-12-27T01:47:41.041Z,1025.04
2018-12-27T01:47:41.640Z,1025.04
2018-12-27T01:47:42.240Z,1025.05
2018-12-27T01:47:42.882Z,1025.04
2018-12-27T01:48:36.296Z,1025.03
2018-12-27T01:48:36.893Z,1025.04
2018-12-27T01:48:37.492Z,1025.01
2018-12-27T01:48:38.092Z,1024.98
2018-12-27T01:48:38.694Z,1025.03
2018-12-27T01:48:39.292Z,1025.04
2018-12-27T01:48:39.891Z,1025.00
2018-12-27T01:48:40.492Z,1025.01
2018-12-27T01:49:33.947Z,1025.00
2018-12-27T01:49:34.544Z,1025.04
2018-12-27T01:49:35.147Z,1024.98
2018-12-27T01:49:35.746Z,1025.03
2018-12-27T01:49:36.345Z,1025.01
2018-12-27T01:49:36.943Z,1025.02
2018-12-27T01:49:37.544Z,1025.01
2018-12-27T01:49:38.144Z,1025.02
2018-12-27T01:50:32.622Z,1025.02
2018-12-27T01:50:33.221Z,1025.03
2018-12-27T01:50:33.819Z,1025.01
2018-12-27T01:50:34.419Z,1024.97
2018-12-27T01:50:35.019Z,1024.97
2018-12-27T01:50:35.621Z,1025.00
2018-12-27T01:50:36.219Z,1025.00
2018-12-27T01:50:36.848Z,1025.03
2018-12-27T01:51:31.298Z,1024.99
2018-12-27T01:51:31.896Z,1025.01
2018-12-27T01:51:32.498Z,1025.02
2018-12-27T01:51:33.098Z,1025.03
2018-12-27T01:51:33.697Z,1025.02
2018-12-27T01:51:34.370Z,1025.02
2018-12-27T01:51:34.895Z,1025.00
2018-12-27T01:51:35.496Z,1024.99
2018-12-27T01:52:29.973Z,1025.00
2018-12-27T01:52:30.572Z,1025.03
2018-12-27T01:52:31.171Z,1025.00
2018-12-27T01:52:31.775Z,1024.98
2018-12-27T01:52:32.370Z,1025.01
2018-12-27T01:52:32.971Z,1025.00
2018-12-27T01:52:33.570Z,1025.00
2018-12-27T01:52:34.170Z,1025.00
2018-12-27T01:53:27.651Z,1025.01
2018-12-27T01:53:28.226Z,1025.01
2018-12-27T01:53:28.826Z,1025.02
2018-12-27T01:53:29.423Z,1025.02
2018-12-27T01:53:30.025Z,1024.99
2018-12-27T01:53:30.625Z,1024.97
2018-12-27T01:53:31.223Z,1025.02
2018-12-27T01:53:31.824Z,1025.01
2018-12-27T01:54:25.278Z,1025.02
2018-12-27T01:54:25.877Z,1025.01
2018-12-27T01:54:26.477Z,1025.01
2018-12-27T01:54:27.075Z,1025.02
2018-12-27T01:54:27.675Z,1025.01
2018-12-27T01:54:28.276Z,1025.01
2018-12-27T01:54:28.875Z,1024.99
2018-12-27T01:54:29.475Z,1024.99
2018-12-27T01:55:22.931Z,1025.00
2018-12-27T01:55:23.527Z,1024.99
2018-12-27T01:55:24.129Z,1025.01
2018-12-27T01:55:24.727Z,1025.01
2018-12-27T01:55:25.327Z,1024.98
2018-12-27T01:55:25.928Z,1024.98
2018-12-27T01:55:26.527Z,1024.99
2018-12-27T01:55:27.126Z,1024.98
2018-12-27T01:56:21.605Z,1025.00
2018-12-27T01:56:22.203Z,1024.97
2018-12-27T01:56:22.803Z,1025.00
2018-12-27T01:56:23.400Z,1024.97
2018-12-27T01:56:24.002Z,1024.94
2018-12-27T01:56:24.601Z,1024.96